sensor_id;sensor_type;location;lat;lon;timestamp;P1;durP1;ratioP1;P2;durP2;ratioP2
14704;SDS011;7442;50.840;3.396;2023-07-24T00:00:57;1.72;;;0.88;;
14704;SDS011;7442;50.840;3.396;2023-07-24T00:03:44;2.25;;;0.95;;
14704;SDS011;7442;50.840;3.396;2023-07-24T00:06:30;2.22;;;1.05;;
14704;SDS011;7442;50.840;3.396;2023-07-24T00:09:16;2.83;;;1.02;;
14704;SDS011;7442;50.840;3.396;2023-07-24T00:12:03;1.30;;;1.20;;
14704;SDS011;7442;50.840;3.396;2023-07-24T00:14:51;0.90;;;0.90;;
14704;SDS011;7442;50.840;3.396;2023-07-24T00:17:38;0.80;;;0.80;;
14704;SDS011;7442;50.840;3.396;2023-07-24T00:20:24;1.30;;;1.20;;
14704;SDS011;7442;50.840;3.396;2023-07-24T00:23:10;1.12;;;0.90;;
14704;SDS011;7442;50.840;3.396;2023-07-24T00:25:59;1.12;;;0.80;;
14704;SDS011;7442;50.840;3.396;2023-07-24T00:28:45;3.35;;;1.10;;
14704;SDS011;7442;50.840;3.396;2023-07-24T00:31:32;1.50;;;1.00;;
14704;SDS011;7442;50.840;3.396;2023-07-24T00:34:18;1.67;;;1.00;;
14704;SDS011;7442;50.840;3.396;2023-07-24T00:37:04;1.65;;;0.90;;
14704;SDS011;7442;50.840;3.396;2023-07-24T00:39:50;0.90;;;0.88;;
14704;SDS011;7442;50.840;3.396;2023-07-24T00:42:36;1.40;;;1.00;;
14704;SDS011;7442;50.840;3.396;2023-07-24T00:45:22;1.10;;;1.00;;
14704;SDS011;7442;50.840;3.396;2023-07-24T00:48:09;0.98;;;0.88;;
14704;SDS011;7442;50.840;3.396;2023-07-24T00:50:55;1.20;;;1.10;;
14704;SDS011;7442;50.840;3.396;2023-07-24T00:53:42;1.00;;;0.90;;
14704;SDS011;7442;50.840;3.396;2023-07-24T00:56:31;0.90;;;0.90;;
14704;SDS011;7442;50.840;3.396;2023-07-24T00:59:17;1.00;;;1.00;;
14704;SDS011;7442;50.840;3.396;2023-07-24T01:02:04;1.12;;;0.93;;
14704;SDS011;7442;50.840;3.396;2023-07-24T01:04:51;2.40;;;0.80;;
14704;SDS011;7442;50.840;3.396;2023-07-24T01:07:37;0.93;;;0.90;;
14704;SDS011;7442;50.840;3.396;2023-07-24T01:10:24;0.80;;;0.80;;
14704;SDS011;7442;50.840;3.396;2023-07-24T01:13:15;1.47;;;1.00;;
14704;SDS011;7442;50.840;3.396;2023-07-24T01:16:06;1.70;;;0.90;;
14704;SDS011;7442;50.840;3.396;2023-07-24T01:18:53;0.90;;;0.90;;
14704;SDS011;7442;50.840;3.396;2023-07-24T01:21:58;0.75;;;0.75;;
14704;SDS011;7442;50.840;3.396;2023-07-24T01:24:46;1.17;;;1.02;;
14704;SDS011;7442;50.840;3.396;2023-07-24T01:27:45;0.90;;;0.90;;
14704;SDS011;7442;50.840;3.396;2023-07-24T01:30:29;1.15;;;0.88;;
14704;SDS011;7442;50.840;3.396;2023-07-24T01:33:17;2.85;;;0.80;;
14704;SDS011;7442;50.840;3.396;2023-07-24T01:36:06;1.25;;;1.00;;
14704;SDS011;7442;50.840;3.396;2023-07-24T01:38:52;1.02;;;0.80;;
14704;SDS011;7442;50.840;3.396;2023-07-24T01:41:39;1.62;;;1.10;;
14704;SDS011;7442;50.840;3.396;2023-07-24T01:44:26;0.88;;;0.88;;
14704;SDS011;7442;50.840;3.396;2023-07-24T01:47:12;1.30;;;1.00;;
14704;SDS011;7442;50.840;3.396;2023-07-24T01:49:58;1.50;;;1.20;;
14704;SDS011;7442;50.840;3.396;2023-07-24T01:52:45;1.10;;;1.00;;
14704;SDS011;7442;50.840;3.396;2023-07-24T01:55:31;1.00;;;0.88;;
14704;SDS011;7442;50.840;3.396;2023-07-24T01:58:17;2.08;;;1.02;;
14704;SDS011;7442;50.840;3.396;2023-07-24T02:01:07;1.37;;;1.15;;
14704;SDS011;7442;50.840;3.396;2023-07-24T02:03:54;0.70;;;0.70;;
14704;SDS011;7442;50.840;3.396;2023-07-24T02:06:40;1.20;;;1.10;;
14704;SDS011;7442;50.840;3.396;2023-07-24T02:09:26;1.52;;;1.22;;
14704;SDS011;7442;50.840;3.396;2023-07-24T02:12:13;1.55;;;1.10;;
14704;SDS011;7442;50.840;3.396;2023-07-24T02:14:59;1.10;;;1.00;;
14704;SDS011;7442;50.840;3.396;2023-07-24T02:17:45;1.50;;;1.10;;
14704;SDS011;7442;50.840;3.396;2023-07-24T02:20:31;1.60;;;0.90;;
14704;SDS011;7442;50.840;3.396;2023-07-24T02:23:17;1.20;;;1.10;;
14704;SDS011;7442;50.840;3.396;2023-07-24T02:26:04;0.80;;;0.80;;
14704;SDS011;7442;50.840;3.396;2023-07-24T02:28:50;1.12;;;0.95;;
14704;SDS011;7442;50.840;3.396;2023-07-24T02:31:40;1.22;;;0.70;;
14704;SDS011;7442;50.840;3.396;2023-07-24T02:34:27;1.20;;;1.02;;
14704;SDS011;7442;50.840;3.396;2023-07-24T02:37:13;1.00;;;0.90;;
14704;SDS011;7442;50.840;3.396;2023-07-24T02:39:59;1.20;;;1.02;;
14704;SDS011;7442;50.840;3.396;2023-07-24T02:42:45;0.90;;;0.85;;
14704;SDS011;7442;50.840;3.396;2023-07-24T02:45:35;0.95;;;0.88;;
14704;SDS011;7442;50.840;3.396;2023-07-24T02:48:23;1.22;;;1.07;;
14704;SDS011;7442;50.840;3.396;2023-07-24T02:51:09;0.88;;;0.85;;
14704;SDS011;7442;50.840;3.396;2023-07-24T02:53:55;1.17;;;1.07;;
14704;SDS011;7442;50.840;3.396;2023-07-24T02:56:42;1.92;;;1.00;;
14704;SDS011;7442;50.840;3.396;2023-07-24T02:59:29;1.42;;;0.80;;
14704;SDS011;7442;50.840;3.396;2023-07-24T03:02:16;1.22;;;0.80;;
14704;SDS011;7442;50.840;3.396;2023-07-24T03:05:02;1.65;;;1.25;;
14704;SDS011;7442;50.840;3.396;2023-07-24T03:07:48;1.07;;;0.98;;
14704;SDS011;7442;50.840;3.396;2023-07-24T03:10:44;1.67;;;1.30;;
14704;SDS011;7442;50.840;3.396;2023-07-24T03:13:26;0.95;;;0.90;;
14704;SDS011;7442;50.840;3.396;2023-07-24T03:16:14;0.80;;;0.80;;
14704;SDS011;7442;50.840;3.396;2023-07-24T03:19:01;1.30;;;1.20;;
14704;SDS011;7442;50.840;3.396;2023-07-24T03:21:49;0.90;;;0.90;;
14704;SDS011;7442;50.840;3.396;2023-07-24T03:24:35;1.15;;;1.02;;
14704;SDS011;7442;50.840;3.396;2023-07-24T03:27:21;0.85;;;0.85;;
14704;SDS011;7442;50.840;3.396;2023-07-24T03:30:09;1.07;;;0.90;;
14704;SDS011;7442;50.840;3.396;2023-07-24T03:32:56;1.10;;;1.00;;
14704;SDS011;7442;50.840;3.396;2023-07-24T03:35:43;0.95;;;0.95;;
14704;SDS011;7442;50.840;3.396;2023-07-24T03:38:30;0.80;;;0.80;;
14704;SDS011;7442;50.840;3.396;2023-07-24T03:41:17;1.27;;;0.98;;
14704;SDS011;7442;50.840;3.396;2023-07-24T03:44:03;1.17;;;1.12;;
14704;SDS011;7442;50.840;3.396;2023-07-24T03:46:49;0.98;;;0.98;;
14704;SDS011;7442;50.840;3.396;2023-07-24T03:49:35;1.20;;;1.10;;
14704;SDS011;7442;50.840;3.396;2023-07-24T03:52:22;1.30;;;1.20;;
14704;SDS011;7442;50.840;3.396;2023-07-24T03:55:08;0.72;;;0.70;;
14704;SDS011;7442;50.840;3.396;2023-07-24T03:57:57;1.30;;;1.17;;
14704;SDS011;7442;50.840;3.396;2023-07-24T04:00:43;1.17;;;1.07;;
14704;SDS011;7442;50.840;3.396;2023-07-24T04:03:29;1.25;;;1.15;;
14704;SDS011;7442;50.840;3.396;2023-07-24T04:06:16;1.22;;;1.00;;
14704;SDS011;7442;50.840;3.396;2023-07-24T04:09:02;0.90;;;0.90;;
14704;SDS011;7442;50.840;3.396;2023-07-24T04:11:49;0.95;;;0.90;;
14704;SDS011;7442;50.840;3.396;2023-07-24T04:14:35;1.10;;;1.10;;
14704;SDS011;7442;50.840;3.396;2023-07-24T04:17:21;1.30;;;1.20;;
14704;SDS011;7442;50.840;3.396;2023-07-24T04:20:08;1.05;;;1.02;;
14704;SDS011;7442;50.840;3.396;2023-07-24T04:22:54;1.50;;;1.20;;
14704;SDS011;7442;50.840;3.396;2023-07-24T04:25:41;1.12;;;1.02;;
14704;SDS011;7442;50.840;3.396;2023-07-24T04:28:27;1.15;;;1.05;;
14704;SDS011;7442;50.840;3.396;2023-07-24T04:31:15;1.00;;;1.00;;
14704;SDS011;7442;50.840;3.396;2023-07-24T04:34:03;1.17;;;1.07;;
14704;SDS011;7442;50.840;3.396;2023-07-24T04:36:49;1.20;;;1.10;;
14704;SDS011;7442;50.840;3.396;2023-07-24T04:39:40;1.45;;;1.25;;
14704;SDS011;7442;50.840;3.396;2023-07-24T04:42:26;1.12;;;1.10;;
14704;SDS011;7442;50.840;3.396;2023-07-24T04:45:12;1.30;;;0.93;;
14704;SDS011;7442;50.840;3.396;2023-07-24T04:48:01;1.02;;;0.93;;
14704;SDS011;7442;50.840;3.396;2023-07-24T04:50:52;0.90;;;0.90;;
14704;SDS011;7442;50.840;3.396;2023-07-24T04:53:41;1.05;;;0.95;;
14704;SDS011;7442;50.840;3.396;2023-07-24T04:56:27;1.30;;;1.20;;
14704;SDS011;7442;50.840;3.396;2023-07-24T04:59:13;0.90;;;0.90;;
14704;SDS011;7442;50.840;3.396;2023-07-24T05:02:01;1.20;;;1.10;;
14704;SDS011;7442;50.840;3.396;2023-07-24T05:04:48;1.10;;;1.00;;
14704;SDS011;7442;50.840;3.396;2023-07-24T05:07:34;4.30;;;1.15;;
14704;SDS011;7442;50.840;3.396;2023-07-24T05:10:21;1.00;;;1.00;;
14704;SDS011;7442;50.840;3.396;2023-07-24T05:13:07;1.45;;;1.30;;
14704;SDS011;7442;50.840;3.396;2023-07-24T05:15:53;0.88;;;0.88;;
14704;SDS011;7442;50.840;3.396;2023-07-24T05:18:40;1.15;;;0.98;;
14704;SDS011;7442;50.840;3.396;2023-07-24T05:21:26;1.40;;;1.30;;
14704;SDS011;7442;50.840;3.396;2023-07-24T05:24:13;1.30;;;1.20;;
14704;SDS011;7442;50.840;3.396;2023-07-24T05:26:59;1.37;;;1.10;;
14704;SDS011;7442;50.840;3.396;2023-07-24T05:29:45;0.90;;;0.90;;
14704;SDS011;7442;50.840;3.396;2023-07-24T05:32:32;2.65;;;1.00;;
14704;SDS011;7442;50.840;3.396;2023-07-24T05:35:18;2.60;;;1.22;;
14704;SDS011;7442;50.840;3.396;2023-07-24T05:38:04;2.15;;;1.45;;
14704;SDS011;7442;50.840;3.396;2023-07-24T05:40:55;2.70;;;1.20;;
14704;SDS011;7442;50.840;3.396;2023-07-24T05:43:44;2.10;;;1.30;;
14704;SDS011;7442;50.840;3.396;2023-07-24T05:46:31;3.15;;;0.98;;
14704;SDS011;7442;50.840;3.396;2023-07-24T05:49:18;1.72;;;1.30;;
14704;SDS011;7442;50.840;3.396;2023-07-24T05:52:04;1.60;;;1.45;;
14704;SDS011;7442;50.840;3.396;2023-07-24T05:54:50;1.50;;;1.17;;
14704;SDS011;7442;50.840;3.396;2023-07-24T05:57:38;1.25;;;0.98;;
14704;SDS011;7442;50.840;3.396;2023-07-24T06:00:24;1.60;;;1.50;;
14704;SDS011;7442;50.840;3.396;2023-07-24T06:03:10;1.50;;;1.40;;
14704;SDS011;7442;50.840;3.396;2023-07-24T06:05:56;2.30;;;1.70;;
14704;SDS011;7442;50.840;3.396;2023-07-24T06:08:43;1.47;;;1.30;;
14704;SDS011;7442;50.840;3.396;2023-07-24T06:11:29;1.52;;;1.27;;
14704;SDS011;7442;50.840;3.396;2023-07-24T06:14:15;2.37;;;1.55;;
14704;SDS011;7442;50.840;3.396;2023-07-24T06:17:02;2.58;;;1.45;;
14704;SDS011;7442;50.840;3.396;2023-07-24T06:19:49;1.57;;;1.20;;
14704;SDS011;7442;50.840;3.396;2023-07-24T06:22:36;1.90;;;1.50;;
14704;SDS011;7442;50.840;3.396;2023-07-24T06:25:26;1.35;;;1.25;;
14704;SDS011;7442;50.840;3.396;2023-07-24T06:28:13;1.27;;;1.10;;
14704;SDS011;7442;50.840;3.396;2023-07-24T06:30:59;3.55;;;1.27;;
14704;SDS011;7442;50.840;3.396;2023-07-24T06:33:45;2.47;;;1.72;;
14704;SDS011;7442;50.840;3.396;2023-07-24T06:36:32;2.17;;;1.82;;
14704;SDS011;7442;50.840;3.396;2023-07-24T06:39:18;2.50;;;1.60;;
14704;SDS011;7442;50.840;3.396;2023-07-24T06:42:04;6.15;;;1.60;;
14704;SDS011;7442;50.840;3.396;2023-07-24T06:44:51;2.42;;;1.47;;
14704;SDS011;7442;50.840;3.396;2023-07-24T06:47:37;3.17;;;1.90;;
14704;SDS011;7442;50.840;3.396;2023-07-24T06:50:23;2.15;;;1.70;;
14704;SDS011;7442;50.840;3.396;2023-07-24T06:53:09;3.58;;;2.02;;
14704;SDS011;7442;50.840;3.396;2023-07-24T06:55:56;3.60;;;1.90;;
14704;SDS011;7442;50.840;3.396;2023-07-24T06:58:42;2.52;;;1.67;;
14704;SDS011;7442;50.840;3.396;2023-07-24T07:01:28;3.20;;;1.77;;
14704;SDS011;7442;50.840;3.396;2023-07-24T07:04:15;3.77;;;1.82;;
14704;SDS011;7442;50.840;3.396;2023-07-24T07:07:02;3.65;;;2.15;;
14704;SDS011;7442;50.840;3.396;2023-07-24T07:09:48;2.50;;;1.72;;
14704;SDS011;7442;50.840;3.396;2023-07-24T07:12:34;4.15;;;1.77;;
14704;SDS011;7442;50.840;3.396;2023-07-24T07:15:22;4.67;;;1.77;;
14704;SDS011;7442;50.840;3.396;2023-07-24T07:18:08;2.47;;;1.55;;
14704;SDS011;7442;50.840;3.396;2023-07-24T07:20:56;3.83;;;2.27;;
14704;SDS011;7442;50.840;3.396;2023-07-24T07:23:42;4.62;;;2.60;;
14704;SDS011;7442;50.840;3.396;2023-07-24T07:26:28;5.85;;;3.00;;
14704;SDS011;7442;50.840;3.396;2023-07-24T07:32:06;3.87;;;2.70;;
14704;SDS011;7442;50.840;3.396;2023-07-24T07:34:53;3.90;;;2.67;;
14704;SDS011;7442;50.840;3.396;2023-07-24T07:37:40;5.15;;;2.90;;
14704;SDS011;7442;50.840;3.396;2023-07-24T07:40:26;4.92;;;2.87;;
14704;SDS011;7442;50.840;3.396;2023-07-24T07:43:12;4.47;;;2.85;;
14704;SDS011;7442;50.840;3.396;2023-07-24T07:45:59;5.45;;;3.08;;
14704;SDS011;7442;50.840;3.396;2023-07-24T07:48:45;4.92;;;3.58;;
14704;SDS011;7442;50.840;3.396;2023-07-24T07:51:32;5.22;;;3.10;;
14704;SDS011;7442;50.840;3.396;2023-07-24T07:54:19;5.90;;;3.22;;
14704;SDS011;7442;50.840;3.396;2023-07-24T07:57:06;4.95;;;3.27;;
14704;SDS011;7442;50.840;3.396;2023-07-24T07:59:54;9.58;;;3.72;;
14704;SDS011;7442;50.840;3.396;2023-07-24T08:02:40;7.45;;;3.58;;
14704;SDS011;7442;50.840;3.396;2023-07-24T08:05:27;5.60;;;2.87;;
14704;SDS011;7442;50.840;3.396;2023-07-24T08:08:13;5.03;;;3.50;;
14704;SDS011;7442;50.840;3.396;2023-07-24T08:11:03;4.33;;;3.40;;
14704;SDS011;7442;50.840;3.396;2023-07-24T08:13:50;6.75;;;3.22;;
14704;SDS011;7442;50.840;3.396;2023-07-24T08:16:37;6.30;;;3.12;;
14704;SDS011;7442;50.840;3.396;2023-07-24T08:19:23;5.12;;;2.80;;
14704;SDS011;7442;50.840;3.396;2023-07-24T08:22:11;3.62;;;2.72;;
14704;SDS011;7442;50.840;3.396;2023-07-24T08:24:57;6.67;;;2.72;;
14704;SDS011;7442;50.840;3.396;2023-07-24T08:27:51;4.28;;;2.87;;
14704;SDS011;7442;50.840;3.396;2023-07-24T08:30:37;4.45;;;3.10;;
14704;SDS011;7442;50.840;3.396;2023-07-24T08:33:24;4.33;;;2.95;;
14704;SDS011;7442;50.840;3.396;2023-07-24T08:36:10;5.05;;;3.10;;
14704;SDS011;7442;50.840;3.396;2023-07-24T08:38:57;4.45;;;3.10;;
14704;SDS011;7442;50.840;3.396;2023-07-24T08:41:43;10.08;;;3.15;;
14704;SDS011;7442;50.840;3.396;2023-07-24T08:44:29;11.97;;;3.02;;
14704;SDS011;7442;50.840;3.396;2023-07-24T08:47:16;6.70;;;3.12;;
14704;SDS011;7442;50.840;3.396;2023-07-24T08:50:04;12.03;;;3.37;;
14704;SDS011;7442;50.840;3.396;2023-07-24T08:52:53;5.92;;;3.00;;
14704;SDS011;7442;50.840;3.396;2023-07-24T08:55:41;7.58;;;3.22;;
14704;SDS011;7442;50.840;3.396;2023-07-24T08:58:28;5.80;;;2.85;;
14704;SDS011;7442;50.840;3.396;2023-07-24T09:01:15;5.75;;;3.10;;
14704;SDS011;7442;50.840;3.396;2023-07-24T09:04:01;4.90;;;2.80;;
14704;SDS011;7442;50.840;3.396;2023-07-24T09:06:48;7.25;;;3.02;;
14704;SDS011;7442;50.840;3.396;2023-07-24T09:09:35;5.22;;;3.30;;
14704;SDS011;7442;50.840;3.396;2023-07-24T09:12:24;5.62;;;3.40;;
14704;SDS011;7442;50.840;3.396;2023-07-24T09:15:10;4.42;;;3.08;;
14704;SDS011;7442;50.840;3.396;2023-07-24T09:17:57;7.42;;;3.10;;
14704;SDS011;7442;50.840;3.396;2023-07-24T09:20:43;4.00;;;2.95;;
14704;SDS011;7442;50.840;3.396;2023-07-24T09:23:30;4.40;;;3.10;;
14704;SDS011;7442;50.840;3.396;2023-07-24T09:26:18;6.53;;;3.30;;
14704;SDS011;7442;50.840;3.396;2023-07-24T09:29:11;3.72;;;2.90;;
14704;SDS011;7442;50.840;3.396;2023-07-24T09:31:58;3.90;;;2.98;;
14704;SDS011;7442;50.840;3.396;2023-07-24T09:34:49;3.80;;;3.00;;
14704;SDS011;7442;50.840;3.396;2023-07-24T09:37:36;3.45;;;3.15;;
14704;SDS011;7442;50.840;3.396;2023-07-24T09:40:23;3.62;;;2.85;;
14704;SDS011;7442;50.840;3.396;2023-07-24T09:43:19;3.92;;;2.92;;
14704;SDS011;7442;50.840;3.396;2023-07-24T09:46:07;3.20;;;2.80;;
14704;SDS011;7442;50.840;3.396;2023-07-24T09:48:54;3.37;;;3.00;;
14704;SDS011;7442;50.840;3.396;2023-07-24T09:51:42;6.20;;;3.17;;
14704;SDS011;7442;50.840;3.396;2023-07-24T09:54:32;8.50;;;3.08;;
14704;SDS011;7442;50.840;3.396;2023-07-24T09:57:23;7.25;;;2.77;;
14704;SDS011;7442;50.840;3.396;2023-07-24T10:00:09;5.47;;;2.92;;
14704;SDS011;7442;50.840;3.396;2023-07-24T10:02:57;6.60;;;3.50;;
14704;SDS011;7442;50.840;3.396;2023-07-24T10:05:44;6.75;;;3.17;;
14704;SDS011;7442;50.840;3.396;2023-07-24T10:08:32;6.67;;;3.27;;
14704;SDS011;7442;50.840;3.396;2023-07-24T10:11:19;6.15;;;3.30;;
14704;SDS011;7442;50.840;3.396;2023-07-24T10:14:07;4.72;;;2.90;;
14704;SDS011;7442;50.840;3.396;2023-07-24T10:16:55;3.80;;;2.90;;
14704;SDS011;7442;50.840;3.396;2023-07-24T10:19:42;3.42;;;3.12;;
14704;SDS011;7442;50.840;3.396;2023-07-24T10:22:29;4.90;;;3.20;;
14704;SDS011;7442;50.840;3.396;2023-07-24T10:25:15;5.30;;;3.05;;
14704;SDS011;7442;50.840;3.396;2023-07-24T10:28:05;5.25;;;3.20;;
14704;SDS011;7442;50.840;3.396;2023-07-24T10:30:55;4.42;;;3.30;;
14704;SDS011;7442;50.840;3.396;2023-07-24T10:33:44;7.85;;;3.42;;
14704;SDS011;7442;50.840;3.396;2023-07-24T10:36:33;4.10;;;3.30;;
14704;SDS011;7442;50.840;3.396;2023-07-24T10:39:19;4.67;;;3.45;;
14704;SDS011;7442;50.840;3.396;2023-07-24T10:42:10;4.55;;;3.02;;
14704;SDS011;7442;50.840;3.396;2023-07-24T10:45:07;3.47;;;2.87;;
14704;SDS011;7442;50.840;3.396;2023-07-24T10:47:54;4.42;;;3.27;;
14704;SDS011;7442;50.840;3.396;2023-07-24T10:50:42;5.97;;;3.20;;
14704;SDS011;7442;50.840;3.396;2023-07-24T10:53:30;5.35;;;3.17;;
14704;SDS011;7442;50.840;3.396;2023-07-24T10:56:17;5.12;;;3.40;;
14704;SDS011;7442;50.840;3.396;2023-07-24T10:59:05;5.28;;;3.40;;
14704;SDS011;7442;50.840;3.396;2023-07-24T11:01:53;4.37;;;3.08;;
14704;SDS011;7442;50.840;3.396;2023-07-24T11:04:41;5.58;;;3.62;;
14704;SDS011;7442;50.840;3.396;2023-07-24T11:07:31;6.35;;;3.50;;
14704;SDS011;7442;50.840;3.396;2023-07-24T11:10:22;4.78;;;3.22;;
14704;SDS011;7442;50.840;3.396;2023-07-24T11:13:10;6.53;;;3.30;;
14704;SDS011;7442;50.840;3.396;2023-07-24T11:15:56;4.55;;;3.62;;
14704;SDS011;7442;50.840;3.396;2023-07-24T11:18:45;3.87;;;3.20;;
14704;SDS011;7442;50.840;3.396;2023-07-24T11:21:35;7.05;;;3.60;;
14704;SDS011;7442;50.840;3.396;2023-07-24T11:24:22;4.33;;;3.37;;
14704;SDS011;7442;50.840;3.396;2023-07-24T11:27:12;5.30;;;3.10;;
14704;SDS011;7442;50.840;3.396;2023-07-24T11:30:01;6.45;;;3.58;;
14704;SDS011;7442;50.840;3.396;2023-07-24T11:32:48;4.30;;;3.60;;
14704;SDS011;7442;50.840;3.396;2023-07-24T11:35:35;5.55;;;3.42;;
14704;SDS011;7442;50.840;3.396;2023-07-24T11:38:23;4.35;;;3.12;;
14704;SDS011;7442;50.840;3.396;2023-07-24T11:41:10;4.70;;;3.35;;
14704;SDS011;7442;50.840;3.396;2023-07-24T11:43:58;5.08;;;3.50;;
14704;SDS011;7442;50.840;3.396;2023-07-24T11:46:46;5.87;;;3.60;;
14704;SDS011;7442;50.840;3.396;2023-07-24T11:49:32;5.37;;;3.90;;
14704;SDS011;7442;50.840;3.396;2023-07-24T11:52:19;4.22;;;3.15;;
14704;SDS011;7442;50.840;3.396;2023-07-24T11:55:05;4.05;;;3.00;;
14704;SDS011;7442;50.840;3.396;2023-07-24T11:57:56;4.42;;;3.25;;
14704;SDS011;7442;50.840;3.396;2023-07-24T12:00:45;4.55;;;3.33;;
14704;SDS011;7442;50.840;3.396;2023-07-24T12:03:33;5.83;;;3.05;;
14704;SDS011;7442;50.840;3.396;2023-07-24T12:06:20;4.90;;;3.10;;
14704;SDS011;7442;50.840;3.396;2023-07-24T12:09:10;3.62;;;2.77;;
14704;SDS011;7442;50.840;3.396;2023-07-24T12:11:58;5.25;;;2.98;;
14704;SDS011;7442;50.840;3.396;2023-07-24T12:14:44;6.12;;;3.08;;
14704;SDS011;7442;50.840;3.396;2023-07-24T12:17:31;6.40;;;3.10;;
14704;SDS011;7442;50.840;3.396;2023-07-24T12:20:17;4.67;;;3.12;;
14704;SDS011;7442;50.840;3.396;2023-07-24T12:23:04;5.75;;;2.98;;
14704;SDS011;7442;50.840;3.396;2023-07-24T12:25:52;5.50;;;3.20;;
14704;SDS011;7442;50.840;3.396;2023-07-24T12:28:38;3.77;;;2.92;;
14704;SDS011;7442;50.840;3.396;2023-07-24T12:31:25;4.50;;;3.02;;
14704;SDS011;7442;50.840;3.396;2023-07-24T12:34:11;5.35;;;3.10;;
14704;SDS011;7442;50.840;3.396;2023-07-24T12:36:58;4.65;;;3.25;;
14704;SDS011;7442;50.840;3.396;2023-07-24T12:39:45;4.12;;;2.70;;
14704;SDS011;7442;50.840;3.396;2023-07-24T12:42:32;7.42;;;3.10;;
14704;SDS011;7442;50.840;3.396;2023-07-24T12:45:18;3.65;;;2.70;;
14704;SDS011;7442;50.840;3.396;2023-07-24T12:48:05;4.40;;;3.20;;
14704;SDS011;7442;50.840;3.396;2023-07-24T12:50:51;5.35;;;2.77;;
14704;SDS011;7442;50.840;3.396;2023-07-24T12:53:38;5.62;;;3.10;;
14704;SDS011;7442;50.840;3.396;2023-07-24T12:56:25;5.35;;;2.70;;
14704;SDS011;7442;50.840;3.396;2023-07-24T12:59:11;6.17;;;3.05;;
14704;SDS011;7442;50.840;3.396;2023-07-24T13:01:57;3.77;;;2.65;;
14704;SDS011;7442;50.840;3.396;2023-07-24T13:04:43;5.92;;;2.55;;
14704;SDS011;7442;50.840;3.396;2023-07-24T13:07:29;3.72;;;2.67;;
14704;SDS011;7442;50.840;3.396;2023-07-24T13:10:16;6.45;;;2.67;;
14704;SDS011;7442;50.840;3.396;2023-07-24T13:13:02;4.60;;;2.70;;
14704;SDS011;7442;50.840;3.396;2023-07-24T13:15:49;5.00;;;2.47;;
14704;SDS011;7442;50.840;3.396;2023-07-24T13:18:35;4.20;;;2.80;;
14704;SDS011;7442;50.840;3.396;2023-07-24T13:21:22;4.75;;;2.33;;
14704;SDS011;7442;50.840;3.396;2023-07-24T13:24:08;4.45;;;2.77;;
14704;SDS011;7442;50.840;3.396;2023-07-24T13:26:55;3.87;;;2.27;;
14704;SDS011;7442;50.840;3.396;2023-07-24T13:29:42;6.22;;;2.67;;
14704;SDS011;7442;50.840;3.396;2023-07-24T13:32:28;5.35;;;2.17;;
14704;SDS011;7442;50.840;3.396;2023-07-24T13:35:15;5.78;;;2.47;;
14704;SDS011;7442;50.840;3.396;2023-07-24T13:38:01;4.20;;;2.37;;
14704;SDS011;7442;50.840;3.396;2023-07-24T13:40:47;4.03;;;2.42;;
14704;SDS011;7442;50.840;3.396;2023-07-24T13:43:34;8.48;;;2.58;;
14704;SDS011;7442;50.840;3.396;2023-07-24T13:46:20;2.42;;;2.00;;
14704;SDS011;7442;50.840;3.396;2023-07-24T13:49:07;3.25;;;2.42;;
14704;SDS011;7442;50.840;3.396;2023-07-24T13:51:53;4.47;;;2.33;;
14704;SDS011;7442;50.840;3.396;2023-07-24T13:54:39;6.47;;;2.35;;
14704;SDS011;7442;50.840;3.396;2023-07-24T13:57:26;2.10;;;1.95;;
14704;SDS011;7442;50.840;3.396;2023-07-24T14:00:14;4.33;;;2.40;;
14704;SDS011;7442;50.840;3.396;2023-07-24T14:03:01;4.37;;;2.52;;
14704;SDS011;7442;50.840;3.396;2023-07-24T14:05:48;4.22;;;2.20;;
14704;SDS011;7442;50.840;3.396;2023-07-24T14:08:34;8.95;;;2.17;;
14704;SDS011;7442;50.840;3.396;2023-07-24T14:11:21;5.40;;;2.25;;
14704;SDS011;7442;50.840;3.396;2023-07-24T14:14:09;9.48;;;2.67;;
14704;SDS011;7442;50.840;3.396;2023-07-24T14:16:55;3.40;;;2.55;;
14704;SDS011;7442;50.840;3.396;2023-07-24T14:19:42;3.42;;;2.00;;
14704;SDS011;7442;50.840;3.396;2023-07-24T14:22:28;4.75;;;2.50;;
14704;SDS011;7442;50.840;3.396;2023-07-24T14:25:15;8.03;;;2.30;;
14704;SDS011;7442;50.840;3.396;2023-07-24T14:28:01;3.98;;;2.40;;
14704;SDS011;7442;50.840;3.396;2023-07-24T14:30:47;3.92;;;2.30;;
14704;SDS011;7442;50.840;3.396;2023-07-24T14:33:34;3.98;;;2.27;;
14704;SDS011;7442;50.840;3.396;2023-07-24T14:36:20;5.78;;;2.25;;
14704;SDS011;7442;50.840;3.396;2023-07-24T14:39:07;5.28;;;2.60;;
14704;SDS011;7442;50.840;3.396;2023-07-24T14:41:54;5.08;;;2.27;;
14704;SDS011;7442;50.840;3.396;2023-07-24T14:44:40;6.22;;;2.72;;
14704;SDS011;7442;50.840;3.396;2023-07-24T14:47:27;7.72;;;3.10;;
14704;SDS011;7442;50.840;3.396;2023-07-24T14:50:13;6.45;;;2.65;;
14704;SDS011;7442;50.840;3.396;2023-07-24T14:53:04;6.35;;;2.80;;
14704;SDS011;7442;50.840;3.396;2023-07-24T14:55:50;5.90;;;3.62;;
14704;SDS011;7442;50.840;3.396;2023-07-24T14:58:36;8.93;;;3.05;;
14704;SDS011;7442;50.840;3.396;2023-07-24T15:01:22;10.70;;;3.22;;
14704;SDS011;7442;50.840;3.396;2023-07-24T15:04:10;7.83;;;3.50;;
14704;SDS011;7442;50.840;3.396;2023-07-24T15:06:56;5.62;;;3.47;;
14704;SDS011;7442;50.840;3.396;2023-07-24T15:09:43;7.35;;;3.50;;
14704;SDS011;7442;50.840;3.396;2023-07-24T15:12:29;6.33;;;3.80;;
14704;SDS011;7442;50.840;3.396;2023-07-24T15:15:16;11.97;;;6.35;;
14704;SDS011;7442;50.840;3.396;2023-07-24T15:18:03;10.48;;;6.00;;
14704;SDS011;7442;50.840;3.396;2023-07-24T15:20:49;18.00;;;8.90;;
14704;SDS011;7442;50.840;3.396;2023-07-24T15:23:35;11.57;;;7.30;;
14704;SDS011;7442;50.840;3.396;2023-07-24T15:26:22;13.68;;;6.55;;
14704;SDS011;7442;50.840;3.396;2023-07-24T15:29:10;9.58;;;5.97;;
14704;SDS011;7442;50.840;3.396;2023-07-24T15:31:56;13.45;;;6.58;;
14704;SDS011;7442;50.840;3.396;2023-07-24T15:34:42;13.83;;;6.08;;
14704;SDS011;7442;50.840;3.396;2023-07-24T15:37:29;12.95;;;5.45;;
14704;SDS011;7442;50.840;3.396;2023-07-24T15:40:15;10.45;;;5.87;;
14704;SDS011;7442;50.840;3.396;2023-07-24T15:43:02;6.90;;;4.20;;
14704;SDS011;7442;50.840;3.396;2023-07-24T15:45:48;6.97;;;3.65;;
14704;SDS011;7442;50.840;3.396;2023-07-24T15:48:35;7.00;;;3.80;;
14704;SDS011;7442;50.840;3.396;2023-07-24T15:51:21;8.48;;;3.58;;
14704;SDS011;7442;50.840;3.396;2023-07-24T15:54:07;7.45;;;3.50;;
14704;SDS011;7442;50.840;3.396;2023-07-24T15:56:55;10.30;;;3.45;;
14704;SDS011;7442;50.840;3.396;2023-07-24T15:59:43;11.55;;;3.98;;
14704;SDS011;7442;50.840;3.396;2023-07-24T16:02:30;9.83;;;3.55;;
14704;SDS011;7442;50.840;3.396;2023-07-24T16:05:17;8.85;;;3.92;;
14704;SDS011;7442;50.840;3.396;2023-07-24T16:08:05;9.40;;;4.22;;
14704;SDS011;7442;50.840;3.396;2023-07-24T16:10:52;7.22;;;4.65;;
14704;SDS011;7442;50.840;3.396;2023-07-24T16:13:39;11.33;;;5.42;;
14704;SDS011;7442;50.840;3.396;2023-07-24T16:16:26;12.33;;;5.10;;
14704;SDS011;7442;50.840;3.396;2023-07-24T16:19:13;7.72;;;4.67;;
14704;SDS011;7442;50.840;3.396;2023-07-24T16:22:00;8.63;;;5.33;;
14704;SDS011;7442;50.840;3.396;2023-07-24T16:24:46;9.30;;;5.10;;
14704;SDS011;7442;50.840;3.396;2023-07-24T16:27:33;7.70;;;5.17;;
14704;SDS011;7442;50.840;3.396;2023-07-24T16:30:19;8.08;;;5.00;;
14704;SDS011;7442;50.840;3.396;2023-07-24T16:33:07;6.40;;;4.70;;
14704;SDS011;7442;50.840;3.396;2023-07-24T16:35:54;5.25;;;3.55;;
14704;SDS011;7442;50.840;3.396;2023-07-24T16:38:40;4.17;;;3.10;;
14704;SDS011;7442;50.840;3.396;2023-07-24T16:41:27;6.53;;;3.37;;
14704;SDS011;7442;50.840;3.396;2023-07-24T16:44:13;5.60;;;3.70;;
14704;SDS011;7442;50.840;3.396;2023-07-24T16:46:59;6.67;;;4.22;;
14704;SDS011;7442;50.840;3.396;2023-07-24T16:49:46;6.97;;;4.58;;
14704;SDS011;7442;50.840;3.396;2023-07-24T16:52:32;8.90;;;5.12;;
14704;SDS011;7442;50.840;3.396;2023-07-24T16:55:19;6.45;;;5.25;;
14704;SDS011;7442;50.840;3.396;2023-07-24T16:58:12;9.28;;;6.10;;
14704;SDS011;7442;50.840;3.396;2023-07-24T17:00:59;12.20;;;6.65;;
14704;SDS011;7442;50.840;3.396;2023-07-24T17:03:46;11.40;;;7.03;;